Time;durP1;ratioP1;P1;durP2;ratioP2;P2;SDS_P1;SDS_P2;PMS_P1;PMS_P2;Temp;Humidity;BMP_temperature;BMP_pressure;BME280_temperature;BME280_humidity;BME280_pressure;Samples;Min_cycle;Max_cycle;Signal;HPM_P1;HPM_P2
2023/07/28 00:00:32;;;;;;;;;;;17.90;99.90;;;;;;5112717;28;20270;-78
2023/07/28 00:02:58;;;;;;;;;;;17.90;99.90;;;;;;5096479;28;19935;-79
2023/07/28 00:05:29;;;;;;;;;;;17.80;99.90;;;;;;5097952;28;19927;-77
2023/07/28 00:07:55;;;;;;;;;;;17.80;99.90;;;;;;5096368;28;20277;-80
2023/07/28 00:10:20;;;;;;;;;;;17.90;99.90;;;;;;5113387;28;19931;-78
2023/07/28 00:12:46;;;;;;;;;;;17.90;99.90;;;;;;5114452;28;20318;-77
2023/07/28 00:15:12;;;;;;;;;;;17.90;99.90;;;;;;5115085;28;19927;-78
2023/07/28 00:17:37;;;;;;;;;;;17.90;99.90;;;;;;5112630;28;19931;-76
2023/07/28 00:20:03;;;;;;;;;;;17.90;99.90;;;;;;5113362;28;19920;-78
2023/07/28 00:22:35;;;;;;;;;;;17.90;99.90;;;;;;5097552;28;19942;-76
2023/07/28 00:25:00;;;;;;;;;;;17.90;99.90;;;;;;5096056;28;19935;-77
2023/07/28 00:27:29;;;;;;;;;;;17.90;99.90;;;;;;5114445;28;19930;-76
2023/07/28 00:29:54;;;;;;;;;;;17.90;99.90;;;;;;5114241;28;20355;-80
2023/07/28 00:32:20;;;;;;;;;;;17.90;99.90;;;;;;5096102;28;19924;-79
2023/07/28 00:34:48;;;;;;;;;;;17.90;99.90;;;;;;5112591;28;19930;-78
2023/07/28 00:37:15;;;;;;;;;;;17.90;99.90;;;;;;5113071;28;19924;-79
2023/07/28 00:39:41;;;;;;;;;;;17.90;99.90;;;;;;5112755;28;19989;-78
2023/07/28 00:42:09;;;;;;;;;;;17.90;99.90;;;;;;5113493;28;20614;-80
2023/07/28 00:44:36;;;;;;;;;;;17.90;99.90;;;;;;5113025;28;20020;-76
2023/07/28 00:47:02;;;;;;;;;;;17.90;99.90;;;;;;5113819;28;19924;-77
2023/07/28 00:49:28;;;;;;;;;;;17.90;99.90;;;;;;5113194;28;19931;-77
2023/07/28 00:51:54;;;;;;;;;;;17.90;99.90;;;;;;5112162;28;20380;-79
2023/07/28 00:54:19;;;;;;;;;;;17.90;99.90;;;;;;5112311;28;19920;-78
2023/07/28 00:56:45;;;;;;;;;;;17.80;99.90;;;;;;5095238;28;19926;-79
2023/07/28 00:59:11;;;;;;;;;;;17.90;99.90;;;;;;5096150;28;20290;-78
2023/07/28 01:01:37;;;;;;;;;;;17.90;99.90;;;;;;5112203;28;19923;-78
2023/07/28 01:04:03;;;;;;;;;;;17.90;99.90;;;;;;5112755;28;20281;-79
2023/07/28 01:06:35;;;;;;;;;;;17.90;99.90;;;;;;5112527;28;19926;-80
2023/07/28 01:09:09;;;;;;;;;;;17.90;99.90;;;;;;5112757;28;19920;-77
2023/07/28 01:11:35;;;;;;;;;;;17.90;99.90;;;;;;5094675;28;19931;-78
2023/07/28 01:14:00;;;;;;;;;;;17.90;99.90;;;;;;5112978;27;19920;-78
2023/07/28 01:16:26;;;;;;;;;;;17.90;99.90;;;;;;5111593;28;19919;-77
2023/07/28 01:18:51;;;;;;;;;;;17.90;99.90;;;;;;5111695;28;19928;-78
2023/07/28 01:21:20;;;;;;;;;;;17.80;99.90;;;;;;5113112;28;20311;-77
2023/07/28 01:24:05;;;;;;;;;;;17.80;99.90;;;;;;5111927;28;20344;-77
2023/07/28 01:26:33;;;;;;;;;;;17.90;99.90;;;;;;5094781;28;19927;-80
2023/07/28 01:28:59;;;;;;;;;;;17.80;99.90;;;;;;5111797;28;20295;-79
2023/07/28 01:31:25;;;;;;;;;;;17.90;99.90;;;;;;5111063;28;19927;-78
2023/07/28 01:33:50;;;;;;;;;;;17.90;99.90;;;;;;5094259;28;19926;-79
2023/07/28 01:36:19;;;;;;;;;;;17.80;99.90;;;;;;5111779;28;20002;-81
2023/07/28 01:38:52;;;;;;;;;;;17.90;99.90;;;;;;5112057;28;20010;-79
2023/07/28 01:41:17;;;;;;;;;;;17.80;99.90;;;;;;5111567;28;20688;-77
2023/07/28 01:43:43;;;;;;;;;;;17.80;99.90;;;;;;5111545;28;19920;-78
2023/07/28 01:46:09;;;;;;;;;;;17.80;99.90;;;;;;5111203;28;19920;-77
2023/07/28 01:48:35;;;;;;;;;;;17.80;99.90;;;;;;5111753;28;19982;-78
2023/07/28 01:51:06;;;;;;;;;;;17.80;99.90;;;;;;5094739;28;20431;-78
2023/07/28 01:53:32;;;;;;;;;;;17.80;99.90;;;;;;5111248;28;20006;-79
2023/07/28 01:55:57;;;;;;;;;;;17.80;99.90;;;;;;5111579;28;19934;-77
2023/07/28 01:58:28;;;;;;;;;;;17.80;99.90;;;;;;5111127;28;20311;-77
2023/07/28 02:00:54;;;;;;;;;;;17.80;99.90;;;;;;5111248;28;20010;-78
2023/07/28 02:03:20;;;;;;;;;;;17.80;99.90;;;;;;5082019;28;20396;-78
2023/07/28 02:05:46;;;;;;;;;;;17.80;99.90;;;;;;5073781;28;19931;-76
2023/07/28 02:08:12;;;;;;;;;;;17.80;99.90;;;;;;5090611;28;19928;-78
2023/07/28 02:10:37;;;;;;;;;;;17.80;99.90;;;;;;5057147;28;19928;-77
2023/07/28 02:13:04;;;;;;;;;;;17.80;99.90;;;;;;5090490;28;19928;-78
2023/07/28 02:15:29;;;;;;;;;;;17.80;99.90;;;;;;5090574;28;20280;-77
2023/07/28 02:17:55;;;;;;;;;;;17.90;99.90;;;;;;5073569;28;19997;-79
2023/07/28 02:20:20;;;;;;;;;;;17.80;99.90;;;;;;5091809;28;19931;-78
2023/07/28 02:22:46;;;;;;;;;;;17.80;99.90;;;;;;5090785;28;19924;-78
2023/07/28 02:25:18;;;;;;;;;;;17.80;99.90;;;;;;5106766;28;19924;-78
2023/07/28 02:27:43;;;;;;;;;;;17.80;99.90;;;;;;5110993;28;19920;-76
2023/07/28 02:30:10;;;;;;;;;;;17.80;99.90;;;;;;5093443;28;19919;-77
2023/07/28 02:32:36;;;;;;;;;;;17.80;99.90;;;;;;5110627;28;19924;-76
2023/07/28 02:35:07;;;;;;;;;;;17.80;99.90;;;;;;5111392;28;20018;-78
2023/07/28 02:37:33;;;;;;;;;;;17.80;99.90;;;;;;5111170;28;20015;-77
2023/07/28 02:39:59;;;;;;;;;;;17.80;99.90;;;;;;5094075;28;19920;-79
2023/07/28 02:42:25;;;;;;;;;;;17.80;99.90;;;;;;5111795;28;19928;-79
2023/07/28 02:44:50;;;;;;;;;;;17.80;99.90;;;;;;5097400;28;19926;-77
2023/07/28 02:47:16;;;;;;;;;;;17.80;99.90;;;;;;5115145;28;19975;-79
2023/07/28 02:49:43;;;;;;;;;;;17.80;99.90;;;;;;5114625;28;19924;-75
2023/07/28 02:52:08;;;;;;;;;;;17.80;99.90;;;;;;5097288;28;20690;-80
2023/07/28 02:54:34;;;;;;;;;;;17.80;99.90;;;;;;5114479;28;20014;-77
2023/07/28 02:56:59;;;;;;;;;;;17.80;99.90;;;;;;5097126;28;20002;-79
2023/07/28 02:59:26;;;;;;;;;;;17.80;99.90;;;;;;5076750;28;19927;-79
2023/07/28 03:01:52;;;;;;;;;;;17.80;99.90;;;;;;5075780;28;19973;-75
2023/07/28 03:04:20;;;;;;;;;;;17.80;99.90;;;;;;5093502;28;19931;-80
2023/07/28 03:06:48;;;;;;;;;;;17.80;99.90;;;;;;5093634;28;19924;-77
2023/07/28 03:09:15;;;;;;;;;;;17.80;99.90;;;;;;5094027;28;20654;-77
2023/07/28 03:11:42;;;;;;;;;;;17.80;99.90;;;;;;5094175;28;20011;-76
2023/07/28 03:14:07;;;;;;;;;;;17.80;99.90;;;;;;5093362;28;20071;-77
2023/07/28 03:16:33;;;;;;;;;;;17.90;99.90;;;;;;5094839;28;19947;-79
2023/07/28 03:18:59;;;;;;;;;;;17.90;99.90;;;;;;5077596;28;19931;-78
2023/07/28 03:21:24;;;;;;;;;;;17.80;99.90;;;;;;5093404;28;20583;-77
2023/07/28 03:23:50;;;;;;;;;;;17.80;99.90;;;;;;5097782;28;19968;-76
2023/07/28 03:26:16;;;;;;;;;;;17.80;99.90;;;;;;5114161;28;20327;-78
2023/07/28 03:28:41;;;;;;;;;;;17.80;99.90;;;;;;5114962;28;20306;-78
2023/07/28 03:31:07;;;;;;;;;;;17.80;99.90;;;;;;5096318;28;20340;-78
2023/07/28 03:33:33;;;;;;;;;;;17.80;99.90;;;;;;5113910;28;20020;-78
2023/07/28 03:35:59;;;;;;;;;;;17.80;99.90;;;;;;5113535;28;19924;-79
2023/07/28 03:38:28;;;;;;;;;;;17.80;99.90;;;;;;5115121;28;19923;-77
2023/07/28 03:40:54;;;;;;;;;;;17.80;99.90;;;;;;5096048;28;19969;-78
2023/07/28 03:43:20;;;;;;;;;;;17.80;99.90;;;;;;5113597;28;20014;-76
2023/07/28 03:45:47;;;;;;;;;;;17.80;99.90;;;;;;5114002;28;19942;-78
2023/07/28 03:48:13;;;;;;;;;;;17.80;99.90;;;;;;5114727;28;20273;-79
2023/07/28 03:50:39;;;;;;;;;;;17.80;99.90;;;;;;5114160;28;19924;-79
2023/07/28 03:53:04;;;;;;;;;;;17.80;99.90;;;;;;5096040;28;20553;-78
2023/07/28 03:55:30;;;;;;;;;;;17.80;99.90;;;;;;5095984;28;19919;-77
2023/07/28 03:57:55;;;;;;;;;;;17.80;99.90;;;;;;5112162;28;19925;-77
2023/07/28 04:00:21;;;;;;;;;;;17.80;99.90;;;;;;5113584;28;19927;-79
2023/07/28 04:02:49;;;;;;;;;;;17.80;99.90;;;;;;5111380;28;20235;-76
2023/07/28 04:05:15;;;;;;;;;;;17.80;99.90;;;;;;5112494;28;20273;-77
2023/07/28 04:07:40;;;;;;;;;;;17.80;99.90;;;;;;5112554;28;19972;-79
2023/07/28 04:10:06;;;;;;;;;;;17.80;99.90;;;;;;5113064;28;19923;-78
2023/07/28 04:12:32;;;;;;;;;;;17.80;99.90;;;;;;5112634;28;19931;-76
2023/07/28 04:14:57;;;;;;;;;;;17.80;99.90;;;;;;5113605;28;19935;-78
2023/07/28 04:17:23;;;;;;;;;;;17.80;99.90;;;;;;5113095;28;19973;-76
2023/07/28 04:19:54;;;;;;;;;;;17.80;99.90;;;;;;5112692;28;19930;-78
2023/07/28 04:22:21;;;;;;;;;;;17.80;99.90;;;;;;5096318;28;20002;-76
2023/07/28 04:24:48;;;;;;;;;;;17.80;99.90;;;;;;5113609;27;19923;-76
2023/07/28 04:27:14;;;;;;;;;;;17.80;99.90;;;;;;5112826;28;19985;-77
2023/07/28 04:29:41;;;;;;;;;;;17.90;99.90;;;;;;5096566;28;19967;-75
2023/07/28 04:32:07;;;;;;;;;;;17.80;99.90;;;;;;5112079;28;19928;-77
2023/07/28 04:34:33;;;;;;;;;;;17.90;99.90;;;;;;5113159;28;19984;-80
2023/07/28 04:37:01;;;;;;;;;;;17.80;99.90;;;;;;5113659;27;19985;-77
2023/07/28 04:39:27;;;;;;;;;;;17.90;99.90;;;;;;5078579;28;19970;-80
2023/07/28 04:41:56;;;;;;;;;;;17.80;99.90;;;;;;5112995;28;19920;-78
2023/07/28 04:44:21;;;;;;;;;;;17.90;99.90;;;;;;5112328;28;19960;-79
2023/07/28 04:46:50;;;;;;;;;;;17.90;99.90;;;;;;5112311;28;19923;-79
2023/07/28 04:49:15;;;;;;;;;;;17.90;99.90;;;;;;5111846;28;19919;-79
2023/07/28 04:51:42;;;;;;;;;;;17.90;99.90;;;;;;5086465;28;19928;-77
2023/07/28 04:54:08;;;;;;;;;;;17.90;99.90;;;;;;5091104;28;19924;-80
2023/07/28 04:56:39;;;;;;;;;;;18.00;99.90;;;;;;5091996;28;19931;-78
2023/07/28 04:59:06;;;;;;;;;;;17.90;99.90;;;;;;5074466;28;19924;-79
2023/07/28 05:01:33;;;;;;;;;;;18.00;99.90;;;;;;5091468;28;19920;-77
2023/07/28 05:03:58;;;;;;;;;;;18.00;99.90;;;;;;5091561;28;19928;-79
2023/07/28 05:06:24;;;;;;;;;;;18.00;99.90;;;;;;5091002;28;20013;-78
2023/07/28 05:08:49;;;;;;;;;;;18.10;99.90;;;;;;5074846;28;20269;-78
2023/07/28 05:11:15;;;;;;;;;;;18.10;99.90;;;;;;5091365;28;19924;-77
2023/07/28 05:13:40;;;;;;;;;;;18.10;99.90;;;;;;5091584;28;20331;-78
2023/07/28 05:16:06;;;;;;;;;;;18.10;99.90;;;;;;5091484;28;19983;-79
2023/07/28 05:18:35;;;;;;;;;;;18.10;99.90;;;;;;5093319;28;19928;-79
2023/07/28 05:21:00;;;;;;;;;;;18.10;99.90;;;;;;5074557;28;19923;-77
2023/07/28 05:23:26;;;;;;;;;;;18.10;99.90;;;;;;5091869;28;19931;-79
2023/07/28 05:25:52;;;;;;;;;;;18.10;99.90;;;;;;5074334;28;19931;-76
2023/07/28 05:28:20;;;;;;;;;;;18.10;99.90;;;;;;5090922;28;19932;-78
2023/07/28 05:30:46;;;;;;;;;;;18.00;99.90;;;;;;5091419;28;20310;-76
2023/07/28 05:33:11;;;;;;;;;;;18.10;99.90;;;;;;5090079;28;20024;-76
2023/07/28 05:35:37;;;;;;;;;;;18.00;99.90;;;;;;5090945;28;19927;-77
2023/07/28 05:38:02;;;;;;;;;;;18.10;99.90;;;;;;5091208;28;20323;-78
2023/07/28 05:40:28;;;;;;;;;;;18.10;99.90;;;;;;5074852;28;19920;-80
2023/07/28 05:42:55;;;;;;;;;;;18.10;99.90;;;;;;5091223;28;20289;-76
2023/07/28 05:45:27;;;;;;;;;;;18.10;99.90;;;;;;5092040;28;19920;-79
2023/07/28 05:47:53;;;;;;;;;;;18.10;99.90;;;;;;5091062;28;19929;-76
2023/07/28 05:50:19;;;;;;;;;;;18.10;99.90;;;;;;5102377;28;20369;-79
2023/07/28 05:52:44;;;;;;;;;;;18.20;99.90;;;;;;5094389;28;19923;-77
2023/07/28 05:55:10;;;;;;;;;;;18.20;99.90;;;;;;5110823;28;19919;-77
2023/07/28 05:57:36;;;;;;;;;;;18.20;99.90;;;;;;5111524;28;19920;-76
2023/07/28 06:00:02;;;;;;;;;;;18.20;99.90;;;;;;5111584;28;19923;-77
2023/07/28 06:02:28;;;;;;;;;;;18.30;99.90;;;;;;5093497;28;19928;-78
2023/07/28 06:04:54;;;;;;;;;;;18.30;99.90;;;;;;5111734;28;19919;-78
2023/07/28 06:07:19;;;;;;;;;;;18.30;99.90;;;;;;5077390;28;20473;-78
2023/07/28 06:09:45;;;;;;;;;;;18.30;99.90;;;;;;5094357;28;19966;-76
2023/07/28 06:12:10;;;;;;;;;;;18.40;99.90;;;;;;5111012;28;19972;-78
2023/07/28 06:14:36;;;;;;;;;;;18.40;99.90;;;;;;5112925;28;20387;-78
2023/07/28 06:17:02;;;;;;;;;;;18.40;99.90;;;;;;5113437;28;19930;-76
2023/07/28 06:19:27;;;;;;;;;;;18.50;99.90;;;;;;5115970;28;20417;-79
2023/07/28 06:21:53;;;;;;;;;;;18.50;99.90;;;;;;5115477;28;19924;-79
2023/07/28 06:24:19;;;;;;;;;;;18.60;99.90;;;;;;5098409;28;20014;-78
2023/07/28 06:26:44;;;;;;;;;;;18.60;99.90;;;;;;5115402;28;20456;-79
2023/07/28 06:29:10;;;;;;;;;;;18.60;99.90;;;;;;5115425;28;20011;-77
2023/07/28 06:31:41;;;;;;;;;;;18.70;99.90;;;;;;5083209;28;19924;-78
2023/07/28 06:34:07;;;;;;;;;;;18.80;99.90;;;;;;5114524;28;20356;-78
2023/07/28 06:36:32;;;;;;;;;;;18.90;99.90;;;;;;5098269;28;20006;-77
2023/07/28 06:38:58;;;;;;;;;;;18.90;99.90;;;;;;5098076;28;20304;-78
2023/07/28 06:41:24;;;;;;;;;;;18.90;99.90;;;;;;5097779;28;19927;-79
2023/07/28 06:43:49;;;;;;;;;;;18.90;99.90;;;;;;5115273;28;19931;-77
2023/07/28 06:46:16;;;;;;;;;;;18.90;99.90;;;;;;5114724;28;19924;-78
2023/07/28 06:48:42;;;;;;;;;;;19.00;99.90;;;;;;5115316;28;20289;-78
2023/07/28 06:51:07;;;;;;;;;;;19.00;99.90;;;;;;5115617;28;19928;-77
2023/07/28 06:53:34;;;;;;;;;;;19.00;99.90;;;;;;5116330;28;19927;-77
2023/07/28 06:56:00;;;;;;;;;;;19.10;99.90;;;;;;5114936;28;19985;-78
2023/07/28 06:58:25;;;;;;;;;;;19.00;99.90;;;;;;5114410;28;19970;-76
2023/07/28 07:00:51;;;;;;;;;;;19.00;99.90;;;;;;5097517;28;19929;-80
2023/07/28 07:03:17;;;;;;;;;;;19.00;99.90;;;;;;5114063;28;19930;-77
2023/07/28 07:05:44;;;;;;;;;;;19.10;99.90;;;;;;5114838;28;20013;-77
2023/07/28 07:08:10;;;;;;;;;;;19.10;99.90;;;;;;5080491;28;19920;-77
2023/07/28 07:10:35;;;;;;;;;;;19.10;99.90;;;;;;5114725;28;20014;-78
2023/07/28 07:13:02;;;;;;;;;;;19.20;99.90;;;;;;5115416;28;19996;-77
2023/07/28 07:15:29;;;;;;;;;;;19.30;99.90;;;;;;5113296;28;20018;-77
2023/07/28 07:17:55;;;;;;;;;;;19.40;99.90;;;;;;5097617;28;19976;-79
2023/07/28 07:20:20;;;;;;;;;;;19.40;99.90;;;;;;5096446;28;19923;-80
2023/07/28 07:22:47;;;;;;;;;;;19.50;99.90;;;;;;5115317;28;19959;-77
2023/07/28 07:25:12;;;;;;;;;;;19.50;99.90;;;;;;5096763;28;20032;-79
2023/07/28 07:27:39;;;;;;;;;;;19.60;99.90;;;;;;5113391;28;19935;-78
2023/07/28 07:30:05;;;;;;;;;;;19.60;99.90;;;;;;5113227;28;19953;-77
2023/07/28 07:32:32;;;;;;;;;;;19.60;99.90;;;;;;5113420;28;19927;-78
2023/07/28 07:34:57;;;;;;;;;;;19.70;99.90;;;;;;5096890;28;19923;-78
2023/07/28 07:37:23;;;;;;;;;;;19.80;99.90;;;;;;5117293;28;20052;-77
2023/07/28 07:39:50;;;;;;;;;;;19.70;99.90;;;;;;5097184;28;20010;-78
2023/07/28 07:42:18;;;;;;;;;;;19.70;99.90;;;;;;5113028;28;19969;-78
2023/07/28 07:44:44;;;;;;;;;;;19.80;99.90;;;;;;5113704;28;20039;-77
2023/07/28 07:47:14;;;;;;;;;;;19.90;99.90;;;;;;5113271;28;20307;-77
2023/07/28 07:49:39;;;;;;;;;;;19.90;99.90;;;;;;5113238;28;19931;-78
2023/07/28 07:52:06;;;;;;;;;;;20.00;99.90;;;;;;5112888;28;19927;-78
2023/07/28 07:54:32;;;;;;;;;;;20.10;99.90;;;;;;5095721;28;19926;-77
2023/07/28 07:56:57;;;;;;;;;;;20.10;99.90;;;;;;5095964;28;19924;-79
2023/07/28 07:59:32;;;;;;;;;;;20.20;99.90;;;;;;5112890;28;20002;-78
2023/07/28 08:02:00;;;;;;;;;;;20.30;99.90;;;;;;5112120;28;19976;-77
2023/07/28 08:04:25;;;;;;;;;;;20.30;99.90;;;;;;5112185;28;19927;-76
2023/07/28 08:06:51;;;;;;;;;;;20.30;99.90;;;;;;5096060;28;19927;-78
2023/07/28 08:09:16;;;;;;;;;;;20.10;99.90;;;;;;5095289;28;19920;-78
2023/07/28 08:11:48;;;;;;;;;;;20.10;99.90;;;;;;5114149;28;19927;-79
2023/07/28 08:14:13;;;;;;;;;;;20.30;99.90;;;;;;5112098;28;19930;-76
2023/07/28 08:16:43;;;;;;;;;;;20.50;99.90;;;;;;5114178;28;19920;-75
2023/07/28 08:19:09;;;;;;;;;;;20.60;99.90;;;;;;5096014;28;20433;-77
2023/07/28 08:21:36;;;;;;;;;;;20.50;99.90;;;;;;5095353;28;19959;-77
2023/07/28 08:24:03;;;;;;;;;;;20.40;99.90;;;;;;5112574;28;20270;-77
2023/07/28 08:26:29;;;;;;;;;;;20.30;99.90;;;;;;5094973;28;19924;-77
2023/07/28 08:28:55;;;;;;;;;;;20.20;99.90;;;;;;5113745;28;19943;-76
2023/07/28 08:31:20;;;;;;;;;;;20.10;99.90;;;;;;5112368;28;20654;-77
2023/07/28 08:33:52;;;;;;;;;;;20.10;99.90;;;;;;5080395;28;19926;-77
2023/07/28 08:36:17;;;;;;;;;;;20.00;99.90;;;;;;5112195;28;19923;-77
2023/07/28 08:38:44;;;;;;;;;;;20.00;99.90;;;;;;5112368;28;19919;-76
2023/07/28 08:41:10;;;;;;;;;;;20.10;99.90;;;;;;5112287;28;19926;-78
2023/07/28 08:43:36;;;;;;;;;;;20.20;99.90;;;;;;5112398;28;19964;-77
2023/07/28 08:46:03;;;;;;;;;;;20.50;99.90;;;;;;5113129;28;19931;-78
2023/07/28 08:48:30;;;;;;;;;;;20.70;99.90;;;;;;5111343;28;19928;-78
2023/07/28 08:51:08;;;;;;;;;;;20.90;99.90;;;;;;5112132;28;20317;-75
2023/07/28 08:53:33;;;;;;;;;;;21.30;99.90;;;;;;5111502;28;20003;-79
2023/07/28 08:55:59;;;;;;;;;;;21.00;99.90;;;;;;5094806;28;20429;-76
2023/07/28 08:58:25;;;;;;;;;;;21.10;99.90;;;;;;5111706;28;19981;-77
2023/07/28 09:01:00;;;;;;;;;;;21.20;99.90;;;;;;5112340;28;19931;-77
2023/07/28 09:03:27;;;;;;;;;;;21.40;99.90;;;;;;5094837;28;19968;-78
2023/07/28 09:05:59;;;;;;;;;;;21.30;99.90;;;;;;5094840;28;19967;-78
2023/07/28 09:08:24;;;;;;;;;;;21.50;99.90;;;;;;5094569;28;19920;-77
2023/07/28 09:10:51;;;;;;;;;;;21.40;99.90;;;;;;5094579;28;19968;-77
2023/07/28 09:13:17;;;;;;;;;;;21.20;99.90;;;;;;5111625;28;19928;-75
2023/07/28 09:15:43;;;;;;;;;;;21.30;99.90;;;;;;5112868;28;19972;-76
2023/07/28 09:18:10;;;;;;;;;;;21.30;99.90;;;;;;5112438;28;19963;-76
2023/07/28 09:20:42;;;;;;;;;;;21.30;99.90;;;;;;5111749;28;20280;-77
2023/07/28 09:23:09;;;;;;;;;;;21.50;99.90;;;;;;5111530;28;19924;-78
2023/07/28 09:25:37;;;;;;;;;;;21.40;99.90;;;;;;5112883;28;19923;-78
2023/07/28 09:28:03;;;;;;;;;;;21.30;99.90;;;;;;5112327;28;20325;-79
2023/07/28 09:30:45;;;;;;;;;;;21.20;99.90;;;;;;5094720;28;19931;-79
2023/07/28 09:33:12;;;;;;;;;;;21.20;99.90;;;;;;5100940;28;19930;-75
2023/07/28 09:35:47;;;;;;;;;;;21.10;99.90;;;;;;5074730;28;19949;-76
2023/07/28 09:38:13;;;;;;;;;;;21.30;99.90;;;;;;5091746;28;19928;-75
2023/07/28 09:40:40;;;;;;;;;;;21.50;99.90;;;;;;5073869;28;19924;-76
2023/07/28 09:43:06;;;;;;;;;;;21.70;99.90;;;;;;5090921;28;19966;-76
2023/07/28 09:45:32;;;;;;;;;;;22.30;99.90;;;;;;5074694;28;20592;-79
2023/07/28 09:48:02;;;;;;;;;;;22.50;99.90;;;;;;5092696;28;19920;-80
2023/07/28 09:50:29;;;;;;;;;;;22.60;99.90;;;;;;5102323;28;20376;-77
2023/07/28 09:52:57;;;;;;;;;;;22.60;99.90;;;;;;5094871;28;20341;-80
2023/07/28 09:55:24;;;;;;;;;;;22.50;99.90;;;;;;5112690;28;19923;-76
2023/07/28 09:57:55;;;;;;;;;;;22.60;99.90;;;;;;5111747;28;20355;-78
2023/07/28 10:00:22;;;;;;;;;;;22.70;99.90;;;;;;5110759;28;19969;-78
2023/07/28 10:02:48;;;;;;;;;;;22.70;99.90;;;;;;5094133;28;20407;-75
2023/07/28 10:05:15;;;;;;;;;;;23.60;99.90;;;;;;5111118;28;19924;-77
2023/07/28 10:07:42;;;;;;;;;;;22.40;99.90;;;;;;5110598;28;20018;-78
2023/07/28 10:10:14;;;;;;;;;;;22.20;99.90;;;;;;5111442;28;20014;-78
2023/07/28 10:12:41;;;;;;;;;;;22.30;99.90;;;;;;5110749;28;20377;-78
2023/07/28 10:15:07;;;;;;;;;;;22.60;99.90;;;;;;5111564;28;19923;-77
2023/07/28 10:17:34;;;;;;;;;;;23.00;99.90;;;;;;5111463;28;19924;-78
2023/07/28 10:20:19;;;;;;;;;;;23.30;99.90;;;;;;5111834;28;19924;-79
2023/07/28 10:22:46;;;;;;;;;;;23.50;99.90;;;;;;5110194;28;19920;-77
2023/07/28 10:25:21;;;;;;;;;;;23.50;99.90;;;;;;5094494;28;20006;-79
2023/07/28 10:27:47;;;;;;;;;;;23.30;99.90;;;;;;5112195;28;19919;-77
2023/07/28 10:30:13;;;;;;;;;;;23.20;99.90;;;;;;5093640;28;19995;-76
2023/07/28 10:32:43;;;;;;;;;;;23.00;99.90;;;;;;5110583;28;19960;-79
2023/07/28 10:35:11;;;;;;;;;;;22.90;99.90;;;;;;5093933;28;19946;-79
2023/07/28 10:37:37;;;;;;;;;;;22.70;99.90;;;;;;5093641;28;19931;-76
2023/07/28 10:40:22;;;;;;;;;;;22.50;99.90;;;;;;5111518;28;20317;-78
2023/07/28 10:42:47;;;;;;;;;;;22.40;99.90;;;;;;5111029;28;20017;-78
2023/07/28 10:45:19;;;;;;;;;;;22.50;99.90;;;;;;5111527;28;19927;-79
2023/07/28 10:47:47;;;;;;;;;;;22.70;99.90;;;;;;5110852;28;19920;-79
2023/07/28 10:50:13;;;;;;;;;;;23.10;99.90;;;;;;5076989;28;19957;-77
2023/07/28 10:52:54;;;;;;;;;;;23.30;99.90;;;;;;5111133;28;19928;-76
2023/07/28 10:55:21;;;;;;;;;;;23.10;99.90;;;;;;5110758;28;19923;-79
2023/07/28 10:57:48;;;;;;;;;;;23.00;99.90;;;;;;5093579;28;20302;-78
2023/07/28 11:00:15;;;;;;;;;;;22.90;99.90;;;;;;5112611;28;19923;-78
2023/07/28 11:02:48;;;;;;;;;;;22.90;99.90;;;;;;5112443;28;19930;-80
2023/07/28 11:05:18;;;;;;;;;;;23.00;99.90;;;;;;5115562;28;20403;-76
2023/07/28 11:07:45;;;;;;;;;;;23.00;99.90;;;;;;5115381;28;20327;-79
2023/07/28 11:10:12;;;;;;;;;;;23.20;99.90;;;;;;5115312;28;20357;-77
2023/07/28 11:12:42;;;;;;;;;;;23.30;99.90;;;;;;5113908;28;19927;-80
2023/07/28 11:15:10;;;;;;;;;;;23.50;99.90;;;;;;5114642;28;19923;-78
2023/07/28 11:17:37;;;;;;;;;;;23.60;99.90;;;;;;5115387;28;19920;-80
2023/07/28 11:20:03;;;;;;;;;;;23.80;99.90;;;;;;5097953;28;19924;-78
2023/07/28 11:22:29;;;;;;;;;;;23.80;99.90;;;;;;5096998;28;19926;-78
2023/07/28 11:24:54;;;;;;;;;;;23.90;99.90;;;;;;5114171;28;19976;-78
2023/07/28 11:27:20;;;;;;;;;;;23.90;99.90;;;;;;5114173;28;20372;-78
2023/07/28 11:29:46;;;;;;;;;;;23.80;99.90;;;;;;5113742;28;20010;-80
2023/07/28 11:32:12;;;;;;;;;;;23.70;99.90;;;;;;5080025;28;19928;-80
2023/07/28 11:34:38;;;;;;;;;;;23.80;99.90;;;;;;5115023;28;19924;-81
2023/07/28 11:37:05;;;;;;;;;;;24.10;99.90;;;;;;5114179;28;20007;-75
2023/07/28 11:39:40;;;;;;;;;;;24.40;99.90;;;;;;5114693;28;19920;-79
2023/07/28 11:42:06;;;;;;;;;;;24.70;99.90;;;;;;5113745;28;19992;-78
2023/07/28 11:44:38;;;;;;;;;;;24.70;99.90;;;;;;5114004;28;19938;-79
2023/07/28 11:47:05;;;;;;;;;;;24.70;99.90;;;;;;5113652;28;20271;-78
2023/07/28 11:49:31;;;;;;;;;;;24.80;99.90;;;;;;5113708;28;19923;-80
2023/07/28 11:51:58;;;;;;;;;;;24.90;99.90;;;;;;5113540;28;20293;-80
2023/07/28 11:54:25;;;;;;;;;;;25.20;99.90;;;;;;5113502;28;19930;-78
2023/07/28 11:56:54;;;;;;;;;;;25.30;99.90;;;;;;5114546;28;20329;-77
2023/07/28 11:59:20;;;;;;;;;;;25.30;99.90;;;;;;5096726;28;19919;-79
2023/07/28 12:01:56;;;;;;;;;;;25.20;99.90;;;;;;5113219;28;19927;-77
2023/07/28 12:04:24;;;;;;;;;;;25.20;99.90;;;;;;5113210;28;19959;-77
2023/07/28 12:07:06;;;;;;;;;;;25.30;99.90;;;;;;5113810;28;20410;-78
2023/07/28 12:09:48;;;;;;;;;;;25.30;99.90;;;;;;5114382;28;19927;-80
2023/07/28 12:12:18;;;;;;;;;;;25.20;99.90;;;;;;5113342;28;19931;-77
2023/07/28 12:14:47;;;;;;;;;;;25.50;99.90;;;;;;5114320;28;19923;-80
2023/07/28 12:17:13;;;;;;;;;;;25.60;99.90;;;;;;5113498;28;19923;-80
2023/07/28 12:19:43;;;;;;;;;;;25.60;99.90;;;;;;5112573;28;19928;-81
2023/07/28 12:22:09;;;;;;;;;;;25.50;99.90;;;;;;5112872;28;20308;-78
2023/07/28 12:24:35;;;;;;;;;;;25.30;99.90;;;;;;5113238;28;19926;-78
2023/07/28 12:27:01;;;;;;;;;;;25.40;99.90;;;;;;5079299;28;19923;-80
2023/07/28 12:29:26;;;;;;;;;;;25.50;99.90;;;;;;5095851;28;19924;-77
2023/07/28 12:31:53;;;;;;;;;;;25.60;99.90;;;;;;5113108;28;19923;-82
2023/07/28 12:34:19;;;;;;;;;;;25.80;99.90;;;;;;5112903;28;20296;-77
2023/07/28 12:36:51;;;;;;;;;;;25.90;99.90;;;;;;5113328;28;19924;-82
2023/07/28 12:39:16;;;;;;;;;;;26.20;99.90;;;;;;5096210;28;19972;-79
2023/07/28 12:41:45;;;;;;;;;;;26.20;99.90;;;;;;5114122;28;19927;-79
2023/07/28 12:44:10;;;;;;;;;;;25.90;99.90;;;;;;5097745;28;19923;-78
2023/07/28 12:46:37;;;;;;;;;;;25.50;99.90;;;;;;5102193;28;19987;-75
2023/07/28 12:49:04;;;;;;;;;;;25.30;99.90;;;;;;5119428;28;19982;-78
2023/07/28 12:51:30;;;;;;;;;;;25.10;99.90;;;;;;5114877;28;19924;-76
2023/07/28 12:53:55;;;;;;;;;;;25.10;99.90;;;;;;5095875;28;19919;-79
2023/07/28 12:56:21;;;;;;;;;;;25.10;99.90;;;;;;5095486;28;19946;-79
2023/07/28 12:58:47;;;;;;;;;;;25.10;99.90;;;;;;5111979;28;19924;-80
2023/07/28 13:01:12;;;;;;;;;;;25.20;99.90;;;;;;5078237;28;20292;-79
2023/07/28 13:03:38;;;;;;;;;;;25.60;99.90;;;;;;5112629;28;20292;-81
2023/07/28 13:06:04;;;;;;;;;;;25.70;99.90;;;;;;5095520;28;19919;-80
2023/07/28 13:08:29;;;;;;;;;;;26.00;99.90;;;;;;5095588;28;20279;-77
2023/07/28 13:10:55;;;;;;;;;;;26.30;99.90;;;;;;5113084;28;19919;-81
2023/07/28 13:13:20;;;;;;;;;;;26.70;99.90;;;;;;5112119;28;19973;-79
2023/07/28 13:15:47;;;;;;;;;;;26.80;99.90;;;;;;5094959;28;19970;-77
2023/07/28 13:18:14;;;;;;;;;;;26.40;99.90;;;;;;5111963;28;20301;-78
2023/07/28 13:20:40;;;;;;;;;;;26.40;99.90;;;;;;5116823;28;19967;-79
2023/07/28 13:23:05;;;;;;;;;;;26.40;99.90;;;;;;5115864;28;20284;-78
2023/07/28 13:25:31;;;;;;;;;;;26.80;99.90;;;;;;5112744;28;19927;-83
2023/07/28 13:27:56;;;;;;;;;;;27.10;99.90;;;;;;5112513;28;20290;-81
2023/07/28 13:30:22;;;;;;;;;;;27.10;99.90;;;;;;5112310;28;19951;-81
2023/07/28 13:32:48;;;;;;;;;;;27.20;99.90;;;;;;5094613;28;19928;-77
2023/07/28 13:35:14;;;;;;;;;;;27.30;99.90;;;;;;5095004;28;19920;-80
2023/07/28 13:37:40;;;;;;;;;;;27.30;99.90;;;;;;5112740;28;19920;-78
2023/07/28 13:40:07;;;;;;;;;;;27.30;99.90;;;;;;5094899;28;19919;-79
2023/07/28 13:42:32;;;;;;;;;;;27.30;99.90;;;;;;5111956;28;19919;-80
2023/07/28 13:44:58;;;;;;;;;;;27.30;99.90;;;;;;5111361;28;20330;-78
2023/07/28 13:47:23;;;;;;;;;;;27.40;99.90;;;;;;5112051;28;19928;-80
2023/07/28 13:49:49;;;;;;;;;;;27.60;99.90;;;;;;5111896;28;19920;-83
2023/07/28 13:52:15;;;;;;;;;;;27.80;99.90;;;;;;5111726;28;19924;-79
2023/07/28 13:54:40;;;;;;;;;;;27.60;99.90;;;;;;5111863;28;19920;-79
2023/07/28 13:57:06;;;;;;;;;;;27.40;99.90;;;;;;5111435;28;19920;-79
2023/07/28 13:59:34;;;;;;;;;;;27.10;99.90;;;;;;5114049;28;19927;-77
2023/07/28 14:02:00;;;;;;;;;;;26.70;99.90;;;;;;5118498;28;19924;-79
2023/07/28 14:04:25;;;;;;;;;;;26.40;99.90;;;;;;5102129;28;19964;-81
2023/07/28 14:06:51;;;;;;;;;;;26.40;99.90;;;;;;5111670;28;20399;-79
2023/07/28 14:09:16;;;;;;;;;;;26.50;99.90;;;;;;5094777;28;20002;-80
2023/07/28 14:11:42;;;;;;;;;;;26.80;99.90;;;;;;5111578;28;19924;-78
2023/07/28 14:14:11;;;;;;;;;;;26.90;99.90;;;;;;5112081;28;20365;-78